createdAt,value
2017-06-21T00:01:12.899Z,0
2017-06-21T00:02:12.922Z,0
2017-06-21T00:03:27.567Z,0
2017-06-21T00:04:12.671Z,0
2017-06-21T00:05:12.704Z,0
2017-06-21T00:06:13.036Z,0
2017-06-21T00:07:13.052Z,0
2017-06-21T00:08:12.773Z,0
2017-06-21T00:09:13.107Z,0
2017-06-21T00:10:13.126Z,0
2017-06-21T00:11:13.151Z,0
2017-06-21T00:12:27.795Z,0
2017-06-21T00:13:27.819Z,0
2017-06-21T00:14:13.228Z,0
2017-06-21T00:15:27.869Z,0
2017-06-21T00:16:13.280Z,0
2017-06-21T00:17:13.301Z,0
2017-06-21T00:18:13.329Z,0
2017-06-21T00:19:27.968Z,0
2017-06-21T00:20:13.075Z,0
2017-06-21T00:21:13.101Z,0
2017-06-21T00:22:13.126Z,0
2017-06-21T00:23:13.504Z,0
2017-06-21T00:24:13.480Z,0
2017-06-21T00:25:13.503Z,0
2017-06-21T00:26:13.530Z,0
2017-06-21T00:27:28.172Z,0
2017-06-21T00:28:13.578Z,0
2017-06-21T00:29:13.303Z,0
2017-06-21T00:30:28.246Z,0
2017-06-21T00:31:13.352Z,0
2017-06-21T00:33:13.704Z,0
2017-06-21T00:34:28.347Z,0
2017-06-21T00:35:13.757Z,0
2017-06-21T00:36:13.780Z,0
2017-06-21T00:37:13.810Z,0
2017-06-21T00:38:13.831Z,0
2017-06-21T00:39:13.906Z,0
2017-06-21T00:40:13.881Z,0
2017-06-21T00:41:13.906Z,0
2017-06-21T00:42:13.932Z,0
2017-06-21T00:43:13.651Z,0
2017-06-21T00:44:13.675Z,0
2017-06-21T00:45:14.010Z,0
2017-06-21T00:46:14.029Z,0
2017-06-21T00:47:28.371Z,0
2017-06-21T00:48:14.079Z,0
2017-06-21T00:49:14.108Z,0
2017-06-21T00:50:14.132Z,0
2017-06-21T00:52:14.179Z,0
2017-06-21T00:53:14.204Z,0
2017-06-21T00:54:14.228Z,0
2017-06-21T00:55:14.252Z,0
2017-06-21T00:56:14.329Z,0
2017-06-21T00:57:14.306Z,0
2017-06-21T00:58:14.026Z,0
2017-06-21T00:59:14.352Z,0
2017-06-21T01:00:14.378Z,0
2017-06-21T01:01:14.405Z,0
2017-06-21T01:02:14.428Z,0
2017-06-21T01:03:29.071Z,0
2017-06-21T01:04:14.481Z,0
2017-06-21T01:06:29.146Z,0
2017-06-21T01:07:14.552Z,0
2017-06-21T01:09:14.601Z,0
2017-06-21T01:10:14.627Z,0
2017-06-21T01:11:14.653Z,0
2017-06-21T01:12:14.678Z,0
2017-06-21T01:13:14.699Z,0
2017-06-21T01:14:14.727Z,0
2017-06-21T01:15:14.755Z,0
2017-06-21T01:16:14.773Z,0
2017-06-21T01:17:14.814Z,0
2017-06-21T01:18:14.825Z,0
2017-06-21T01:19:14.850Z,0
2017-06-21T01:21:14.898Z,0
2017-06-21T01:22:29.541Z,0
2017-06-21T01:23:14.950Z,0
2017-06-21T01:24:14.976Z,0
2017-06-21T01:25:14.696Z,0
2017-06-21T01:26:15.021Z,0
2017-06-21T01:27:15.091Z,0
2017-06-21T01:28:15.071Z,0
2017-06-21T01:29:15.100Z,0
2017-06-21T01:30:15.127Z,0
2017-06-21T01:31:15.144Z,0
2017-06-21T01:32:15.174Z,0
2017-06-21T01:33:15.196Z,0
2017-06-21T01:34:29.837Z,0
2017-06-21T01:36:14.967Z,0
2017-06-21T01:37:15.294Z,0
2017-06-21T01:38:29.637Z,0
2017-06-21T01:39:15.348Z,0
2017-06-21T01:40:15.416Z,0
2017-06-21T01:41:15.393Z,0
2017-06-21T01:42:15.418Z,0
2017-06-21T01:43:15.440Z,0
2017-06-21T01:44:15.496Z,0
2017-06-21T01:45:15.492Z,0
2017-06-21T01:46:15.517Z,0
2017-06-21T01:47:30.158Z,0
2017-06-21T01:48:15.566Z,0
2017-06-21T01:49:15.589Z,0
2017-06-21T01:50:29.929Z,4
2017-06-21T01:52:15.663Z,4
2017-06-21T01:53:15.383Z,4
2017-06-21T01:54:30.329Z,0
2017-06-21T01:55:15.738Z,0
2017-06-21T01:56:15.762Z,4
2017-06-21T01:57:15.787Z,4
2017-06-21T01:58:15.809Z,4
2017-06-21T01:59:15.836Z,4
2017-06-21T02:00:15.558Z,4
2017-06-21T02:01:15.581Z,4
2017-06-21T02:02:15.910Z,8
2017-06-21T02:03:15.935Z,4
2017-06-21T02:04:15.956Z,4
2017-06-21T02:05:30.599Z,8
2017-06-21T02:06:16.006Z,8
2017-06-21T02:07:30.649Z,12
2017-06-21T02:09:30.698Z,12
2017-06-21T02:10:16.109Z,12
2017-06-21T02:11:15.827Z,16
2017-06-21T02:12:16.157Z,16
2017-06-21T02:13:15.875Z,20
2017-06-21T02:14:16.203Z,20
2017-06-21T02:15:15.924Z,24
2017-06-21T02:16:16.254Z,28
2017-06-21T02:17:16.277Z,32
2017-06-21T02:18:16.300Z,32
2017-06-21T02:19:16.325Z,36
2017-06-21T02:20:16.354Z,40
2017-06-21T02:21:16.375Z,44
2017-06-21T02:22:16.399Z,52
2017-06-21T02:23:16.425Z,52
2017-06-21T02:24:16.447Z,60
2017-06-21T02:25:16.473Z,64
2017-06-21T02:26:16.502Z,72
2017-06-21T02:27:16.524Z,80
2017-06-21T02:28:16.550Z,88
2017-06-21T02:29:16.570Z,92
2017-06-21T02:30:16.593Z,104
2017-06-21T02:31:31.239Z,116
2017-06-21T02:32:16.643Z,124
2017-06-21T02:33:16.666Z,136
2017-06-21T02:34:16.742Z,144
2017-06-21T02:35:16.717Z,160
2017-06-21T02:36:16.745Z,172
2017-06-21T02:37:16.764Z,184
2017-06-21T02:38:16.789Z,200
2017-06-21T02:39:16.814Z,216
2017-06-21T02:40:16.836Z,232
2017-06-21T02:41:31.480Z,256
2017-06-21T02:43:16.910Z,288
2017-06-21T02:44:16.934Z,308
2017-06-21T02:45:16.961Z,328
2017-06-21T02:46:16.985Z,352
2017-06-21T02:47:17.012Z,372
2017-06-21T02:48:17.032Z,396
2017-06-21T02:49:17.056Z,420
2017-06-21T02:50:17.086Z,444
2017-06-21T02:51:31.722Z,480
2017-06-21T02:52:31.746Z,508
2017-06-21T02:53:17.156Z,528
2017-06-21T02:54:31.798Z,564
2017-06-21T02:56:17.232Z,616
2017-06-21T02:57:31.566Z,652
2017-06-21T02:58:16.973Z,680
2017-06-21T03:00:17.327Z,744
2017-06-21T03:01:17.351Z,780
2017-06-21T03:02:17.371Z,816
2017-06-21T03:03:17.399Z,852
2017-06-21T03:04:17.421Z,892
2017-06-21T03:05:17.451Z,928
2017-06-21T03:06:17.473Z,968
2017-06-21T03:07:32.111Z,1020
2017-06-21T03:08:17.518Z,1048
2017-06-21T03:09:17.239Z,1092
2017-06-21T03:10:32.186Z,1144
2017-06-21T03:11:17.338Z,1176
2017-06-21T03:12:17.617Z,1220
2017-06-21T03:13:46.879Z,1284
2017-06-21T03:14:17.663Z,1308
2017-06-21T03:15:17.690Z,1352
2017-06-21T03:16:17.715Z,1392
2017-06-21T03:17:17.734Z,1432
2017-06-21T03:18:17.762Z,1468
2017-06-21T03:19:17.835Z,1492
2017-06-21T03:20:17.809Z,1532
2017-06-21T03:21:32.452Z,1592
2017-06-21T03:22:32.475Z,1636
2017-06-21T03:23:32.506Z,1672
2017-06-21T03:24:32.521Z,1728
2017-06-21T03:25:17.928Z,1764
2017-06-21T03:26:17.953Z,1812
2017-06-21T03:27:17.977Z,1864
2017-06-21T03:29:32.342Z,1820
2017-06-21T03:30:18.049Z,1804
2017-06-21T03:31:18.076Z,1844
2017-06-21T03:32:18.110Z,1936
2017-06-21T03:33:18.123Z,2052
2017-06-21T03:34:18.148Z,2208
2017-06-21T03:35:17.974Z,2336
2017-06-21T03:36:18.197Z,2384
2017-06-21T03:37:17.916Z,2464
2017-06-21T03:38:18.243Z,2516
2017-06-21T03:39:32.886Z,2632
2017-06-21T03:40:18.321Z,2720
2017-06-21T03:42:32.659Z,2520
2017-06-21T03:44:33.015Z,2572
2017-06-21T03:45:18.419Z,2460
2017-06-21T03:46:18.436Z,2480
2017-06-21T03:47:18.463Z,2612
2017-06-21T03:48:18.185Z,2940
2017-06-21T03:49:18.514Z,3040
2017-06-21T03:50:18.540Z,3128
2017-06-21T03:51:18.567Z,3204
2017-06-21T03:52:18.282Z,3204
2017-06-21T03:53:33.227Z,2900
2017-06-21T03:54:18.632Z,3064
2017-06-21T03:55:18.658Z,3512
2017-06-21T03:57:18.708Z,5056
2017-06-21T03:58:18.427Z,4776
2017-06-21T03:59:18.752Z,4100
2017-06-21T04:00:18.782Z,4952
2017-06-21T04:02:18.828Z,5792
2017-06-21T04:03:18.855Z,4968
2017-06-21T04:04:18.880Z,4440
2017-06-21T04:05:18.901Z,4356
2017-06-21T04:06:18.925Z,4420
2017-06-21T04:07:18.950Z,4580
2017-06-21T04:08:18.975Z,5452
2017-06-21T04:09:18.996Z,12380
2017-06-21T04:10:33.639Z,32480
2017-06-21T04:11:33.663Z,44960
2017-06-21T04:12:19.070Z,50432
2017-06-21T04:13:19.096Z,52480
2017-06-21T04:14:19.118Z,52896
2017-06-21T04:15:19.145Z,56384
2017-06-21T04:16:33.839Z,57248
2017-06-21T04:17:19.201Z,57376
2017-06-21T04:19:19.250Z,56512
2017-06-21T04:20:19.307Z,58272
2017-06-21T04:21:19.305Z,46432
2017-06-21T04:22:19.345Z,58144
2017-06-21T04:23:19.359Z,58432
2017-06-21T04:24:34.003Z,60608
2017-06-21T04:25:19.452Z,62464
2017-06-21T04:26:19.438Z,63616
2017-06-21T04:27:19.469Z,63776
2017-06-21T04:28:19.497Z,64672
2017-06-21T04:29:19.525Z,64256
2017-06-21T04:31:19.584Z,68416
2017-06-21T04:32:34.234Z,69216
2017-06-21T04:35:19.705Z,65728
2017-06-21T04:36:19.733Z,68064
2017-06-21T04:37:19.762Z,69888
2017-06-21T04:38:34.418Z,69888
2017-06-21T04:39:19.522Z,69248
2017-06-21T04:40:19.861Z,68864
2017-06-21T04:41:19.888Z,71104
2017-06-21T04:42:19.925Z,70848
2017-06-21T04:45:20.014Z,70240
2017-06-21T04:46:20.046Z,71040
2017-06-21T04:47:20.083Z,70944
2017-06-21T04:48:34.476Z,67680
2017-06-21T04:50:19.875Z,67104
2017-06-21T04:51:20.514Z,68864
2017-06-21T04:52:20.245Z,72384
2017-06-21T04:53:20.274Z,72416
2017-06-21T04:54:20.313Z,74592
2017-06-21T04:55:20.344Z,74720
2017-06-21T04:56:20.071Z,74496
2017-06-21T04:57:20.111Z,76160
2017-06-21T04:58:35.062Z,78240
2017-06-21T04:59:20.476Z,78592
2017-06-21T05:00:35.129Z,80160
2017-06-21T05:01:20.595Z,80064
2017-06-21T05:02:20.578Z,80288
2017-06-21T05:03:20.641Z,77632
2017-06-21T05:04:35.266Z,77568
2017-06-21T05:05:20.681Z,80960
2017-06-21T05:06:20.717Z,82656
2017-06-21T05:07:20.747Z,82656
2017-06-21T05:08:20.783Z,81728
2017-06-21T05:09:20.822Z,82656
2017-06-21T05:10:20.851Z,80128
2017-06-21T05:11:20.886Z,78848
2017-06-21T05:12:20.926Z,77856
2017-06-21T05:13:20.956Z,82592
2017-06-21T05:14:20.991Z,84448
2017-06-21T05:17:21.099Z,87456
2017-06-21T05:18:21.132Z,88576
2017-06-21T05:19:35.485Z,87520
2017-06-21T05:20:21.209Z,85344
2017-06-21T05:22:21.277Z,85920
2017-06-21T05:23:21.313Z,88608
2017-06-21T05:24:21.349Z,89376
2017-06-21T05:25:21.383Z,90752
2017-06-21T05:26:21.418Z,90176
2017-06-21T05:27:21.452Z,90656
2017-06-21T05:28:36.110Z,91616
2017-06-21T05:29:36.146Z,91808
2017-06-21T05:30:21.611Z,93792
2017-06-21T05:32:21.631Z,94816
2017-06-21T05:33:21.674Z,93216
2017-06-21T05:35:21.741Z,93760
2017-06-21T05:36:21.776Z,94720
2017-06-21T05:37:21.815Z,94400
2017-06-21T05:38:21.848Z,92224
2017-06-21T05:39:21.599Z,86976
2017-06-21T05:40:21.925Z,89312
2017-06-21T05:41:21.959Z,90592
2017-06-21T05:42:21.388Z,93568
2017-06-21T05:43:22.031Z,93856
2017-06-21T05:44:22.068Z,92192
2017-06-21T05:45:22.106Z,94752
2017-06-21T05:46:36.760Z,96256
2017-06-21T05:47:36.796Z,98432
2017-06-21T05:48:22.264Z,97984
2017-06-21T05:49:22.250Z,90912
2017-06-21T05:51:36.944Z,89536
2017-06-21T05:52:22.359Z,96064
2017-06-21T05:53:22.096Z,99776
2017-06-21T05:54:22.438Z,97056
2017-06-21T05:55:37.097Z,96224
2017-06-21T05:56:22.512Z,96512
2017-06-21T05:57:22.548Z,94848
2017-06-21T05:58:22.583Z,95552
2017-06-21T05:59:22.668Z,98336
2017-06-21T06:00:37.377Z,99360
2017-06-21T06:01:22.691Z,98464
2017-06-21T06:02:37.355Z,98976
2017-06-21T06:03:22.765Z,102336
2017-06-21T06:05:22.841Z,99616
2017-06-21T06:07:37.540Z,90240
2017-06-21T06:08:22.955Z,87744
2017-06-21T06:09:23.040Z,90272
2017-06-21T06:10:23.029Z,92480
2017-06-21T06:11:23.069Z,94240
2017-06-21T06:12:23.101Z,94784
2017-06-21T06:13:23.141Z,96416
2017-06-21T06:14:23.179Z,93792
2017-06-21T06:15:22.914Z,93824
2017-06-21T06:16:23.251Z,92224
2017-06-21T06:17:23.294Z,92256
2017-06-21T06:18:37.949Z,93408
2017-06-21T06:19:23.417Z,95008
2017-06-21T06:20:23.404Z,94752
2017-06-21T06:21:23.442Z,95712
2017-06-21T06:22:23.486Z,97056
2017-06-21T06:23:38.137Z,95392
2017-06-21T06:24:23.554Z,96736
2017-06-21T06:25:23.646Z,97280
2017-06-21T06:26:23.633Z,95296
2017-06-21T06:27:23.669Z,94784
2017-06-21T06:28:23.404Z,94496
2017-06-21T06:29:23.745Z,90816
2017-06-21T06:30:23.786Z,88288
2017-06-21T06:31:23.823Z,91424
2017-06-21T06:32:38.531Z,92608
2017-06-21T06:33:23.904Z,90080
2017-06-21T06:34:23.937Z,88512
2017-06-21T06:35:23.974Z,87520
2017-06-21T06:36:24.021Z,85632
2017-06-21T06:37:24.052Z,85408
2017-06-21T06:38:38.709Z,86528
2017-06-21T06:39:38.750Z,82848
2017-06-21T06:41:24.204Z,77472
2017-06-21T06:43:24.280Z,80640
2017-06-21T06:44:24.316Z,83552
2017-06-21T06:45:24.362Z,86752
2017-06-21T06:46:38.714Z,84096
2017-06-21T06:47:38.751Z,81664
2017-06-21T06:48:38.788Z,83104
2017-06-21T06:49:24.511Z,85216
2017-06-21T06:50:38.867Z,82624
2017-06-21T06:51:39.210Z,84352
2017-06-21T06:52:24.325Z,87488
2017-06-21T06:53:24.669Z,85888
2017-06-21T06:54:39.324Z,81600
2017-06-21T06:55:24.439Z,82560
2017-06-21T06:56:24.173Z,84512
2017-06-21T06:57:24.517Z,84960
2017-06-21T06:58:24.856Z,82944
2017-06-21T06:59:24.900Z,79648
2017-06-21T07:00:24.933Z,77984
2017-06-21T07:02:39.636Z,78144
2017-06-21T07:03:39.718Z,75488
2017-06-21T07:04:24.785Z,76544
2017-06-21T07:05:25.126Z,76384
2017-06-21T07:06:25.168Z,77984
2017-06-21T07:07:39.824Z,78144
2017-06-21T07:08:24.939Z,78464
2017-06-21T07:09:25.280Z,78144
2017-06-21T07:10:25.322Z,77152
2017-06-21T07:11:25.359Z,76448
2017-06-21T07:12:25.400Z,77536
2017-06-21T07:13:25.434Z,75264
2017-06-21T07:14:25.473Z,71392
2017-06-21T07:15:25.208Z,75264
2017-06-21T07:16:25.550Z,77888
2017-06-21T07:17:25.592Z,77312
2017-06-21T07:18:25.626Z,74912
2017-06-21T07:19:40.290Z,70336
2017-06-21T07:20:25.706Z,70304
2017-06-21T07:22:25.782Z,65056
2017-06-21T07:23:25.821Z,63520
2017-06-21T07:24:25.860Z,63552
2017-06-21T07:25:25.895Z,60992
2017-06-21T07:26:40.559Z,60832
2017-06-21T07:27:26.029Z,63872
2017-06-21T07:28:26.014Z,70048
2017-06-21T07:30:26.145Z,67072
2017-06-21T07:31:25.825Z,65728
2017-06-21T07:32:26.164Z,67456
2017-06-21T07:33:25.899Z,70176
2017-06-21T07:34:25.937Z,71936
2017-06-21T07:35:26.278Z,67840
2017-06-21T07:36:40.634Z,64224
2017-06-21T07:37:26.356Z,63936
2017-06-21T07:38:26.391Z,65120
2017-06-21T07:39:41.066Z,60576
2017-06-21T07:40:41.092Z,57984
2017-06-21T07:42:41.167Z,62464
2017-06-21T07:43:26.588Z,66432
2017-06-21T07:44:26.316Z,66368
2017-06-21T07:45:41.031Z,64160
2017-06-21T07:46:26.699Z,63616
2017-06-21T07:47:26.434Z,62560
2017-06-21T07:48:26.467Z,64800
2017-06-21T07:49:26.510Z,64832
2017-06-21T07:50:26.851Z,62432
2017-06-21T07:51:41.255Z,62272
2017-06-21T07:52:26.929Z,62496
2017-06-21T07:54:27.008Z,63776
2017-06-21T07:55:41.710Z,60704
2017-06-21T07:56:27.078Z,59456
2017-06-21T07:57:26.916Z,63648
2017-06-21T07:58:41.795Z,64928
2017-06-21T07:59:27.193Z,64192
2017-06-21T08:00:27.330Z,61280
2017-06-21T08:01:27.268Z,60928
2017-06-21T08:02:27.354Z,63968
2017-06-21T08:03:27.045Z,63360
2017-06-21T08:04:41.701Z,58912
2017-06-21T08:05:27.114Z,59936
2017-06-21T08:06:27.152Z,60256
2017-06-21T08:07:27.494Z,59424
2017-06-21T08:08:27.224Z,59200
2017-06-21T08:09:26.959Z,59744
2017-06-21T08:10:27.301Z,56544
2017-06-21T08:11:27.650Z,37632
2017-06-21T08:12:27.979Z,22624
2017-06-21T08:13:27.465Z,19040
2017-06-21T08:14:41.772Z,18464
2017-06-21T08:15:27.795Z,18240
2017-06-21T08:16:27.830Z,18048
2017-06-21T08:17:27.869Z,17824
2017-06-21T08:18:27.908Z,17728
2017-06-21T08:19:27.940Z,17568
2017-06-21T08:20:27.979Z,17472
2017-06-21T08:21:28.015Z,17312
2017-06-21T08:22:27.754Z,17020
2017-06-21T08:23:28.098Z,16948
2017-06-21T08:24:28.126Z,16836
2017-06-21T08:25:42.783Z,16716
2017-06-21T08:27:28.239Z,16576
2017-06-21T08:28:28.275Z,16524
2017-06-21T08:29:42.931Z,16488
2017-06-21T08:30:28.045Z,16476
2017-06-21T08:31:28.081Z,16440
2017-06-21T08:32:28.471Z,16276
2017-06-21T08:33:28.458Z,16256
2017-06-21T08:34:28.492Z,16196
2017-06-21T08:35:28.227Z,16160
2017-06-21T08:36:28.572Z,16160
2017-06-21T08:37:28.606Z,16140
2017-06-21T08:38:28.641Z,16020
2017-06-21T08:39:28.725Z,16004
2017-06-21T08:40:28.712Z,15928
2017-06-21T08:42:28.783Z,15964
2017-06-21T08:43:28.824Z,15848
2017-06-21T08:44:28.558Z,16072
2017-06-21T08:45:28.900Z,16124
2017-06-21T08:46:28.930Z,15868
2017-06-21T08:47:28.967Z,15640
2017-06-21T08:48:29.004Z,15684
2017-06-21T08:50:29.076Z,7128
2017-06-21T08:51:29.113Z,15632
2017-06-21T08:52:28.847Z,15348
2017-06-21T08:53:29.183Z,15372
2017-06-21T08:54:29.222Z,15420
2017-06-21T08:55:43.878Z,15200
2017-06-21T08:56:29.293Z,15352
2017-06-21T08:57:43.952Z,15144
2017-06-21T08:58:43.983Z,15088
2017-06-21T08:59:29.400Z,15004
2017-06-21T09:00:29.438Z,14960
2017-06-21T09:01:44.098Z,14820
2017-06-21T09:02:29.205Z,14764
2017-06-21T09:03:29.245Z,14756
2017-06-21T09:05:44.236Z,14588
2017-06-21T09:06:29.350Z,14532
2017-06-21T09:07:29.387Z,14436
2017-06-21T09:08:29.722Z,14388
2017-06-21T09:09:29.758Z,14384
2017-06-21T09:10:44.415Z,14384
2017-06-21T09:11:29.526Z,14348
2017-06-21T09:12:44.487Z,14224
2017-06-21T09:13:29.906Z,14100
2017-06-21T09:14:29.936Z,13924
2017-06-21T09:15:29.669Z,13928
2017-06-21T09:16:30.012Z,13744
2017-06-21T09:17:44.665Z,13848
2017-06-21T09:18:30.079Z,13804
2017-06-21T09:20:30.204Z,13988
2017-06-21T09:21:30.185Z,13880
2017-06-21T09:22:30.225Z,13788
2017-06-21T09:23:30.256Z,13592
2017-06-21T09:24:30.291Z,13536
2017-06-21T09:25:30.326Z,13484
2017-06-21T09:26:30.378Z,13548
2017-06-21T09:27:30.399Z,13432
2017-06-21T09:28:30.129Z,13340
2017-06-21T09:30:30.504Z,13196
2017-06-21T09:31:30.539Z,13108
2017-06-21T09:32:30.323Z,13084
2017-06-21T09:33:45.233Z,13068
2017-06-21T09:34:30.379Z,13032
2017-06-21T09:35:30.681Z,12912
2017-06-21T09:36:30.712Z,12840
2017-06-21T09:37:30.753Z,12764
2017-06-21T09:38:30.785Z,12736
2017-06-21T09:39:30.818Z,12648
2017-06-21T09:40:30.853Z,12576
2017-06-21T09:41:30.888Z,12508
2017-06-21T09:42:30.928Z,12360
2017-06-21T09:43:45.576Z,12268
2017-06-21T09:44:30.995Z,12280
2017-06-21T09:45:31.025Z,12264
2017-06-21T09:46:30.758Z,12276
2017-06-21T09:47:31.101Z,12224
2017-06-21T09:48:31.130Z,12188
2017-06-21T09:49:45.785Z,12200
2017-06-21T09:50:30.902Z,12092
2017-06-21T09:51:30.932Z,12008
2017-06-21T09:52:31.269Z,12016
2017-06-21T09:53:31.303Z,11976
2017-06-21T09:54:31.346Z,11904
2017-06-21T09:55:31.391Z,11872
2017-06-21T09:56:31.408Z,11832
2017-06-21T09:57:31.444Z,11840
2017-06-21T09:58:31.173Z,11776
2017-06-21T09:59:46.132Z,11712
2017-06-21T10:01:31.580Z,11732
2017-06-21T10:03:31.657Z,11728
2017-06-21T10:04:46.306Z,11736
2017-06-21T10:05:31.415Z,11748
2017-06-21T10:06:31.764Z,11712
2017-06-21T10:07:31.790Z,11528
2017-06-21T10:08:31.521Z,11680
2017-06-21T10:09:31.860Z,11548
2017-06-21T10:10:31.894Z,11408
2017-06-21T10:11:31.925Z,11432
2017-06-21T10:12:31.959Z,11268
2017-06-21T10:13:32.292Z,11492
2017-06-21T10:14:32.029Z,11584
2017-06-21T10:15:32.064Z,11460
2017-06-21T10:16:46.414Z,11152
2017-06-21T10:19:32.250Z,10940
2017-06-21T10:20:32.236Z,10980
2017-06-21T10:21:31.965Z,11032
2017-06-21T10:23:32.643Z,11016
2017-06-21T10:24:32.369Z,10972
2017-06-21T10:25:32.401Z,10904
2017-06-21T10:26:32.438Z,10948
2017-06-21T10:27:32.471Z,9936
2017-06-21T10:28:32.502Z,10708
2017-06-21T10:29:32.534Z,10736
2017-06-21T10:30:32.573Z,11000
2017-06-21T10:31:32.605Z,10328
2017-06-21T10:32:32.637Z,10968
2017-06-21T10:33:46.985Z,10804
2017-06-21T10:34:32.704Z,10988
2017-06-21T10:36:47.085Z,10088
2017-06-21T10:38:32.838Z,10568
2017-06-21T10:39:32.873Z,10984
2017-06-21T10:40:32.905Z,11168
2017-06-21T10:41:32.633Z,10052
2017-06-21T10:42:47.288Z,10920
2017-06-21T10:43:33.004Z,11172
2017-06-21T10:44:33.035Z,11220
2017-06-21T10:45:33.066Z,11212
2017-06-21T10:46:33.103Z,11232
2017-06-21T10:47:47.753Z,11268
2017-06-21T10:48:47.179Z,11240
2017-06-21T10:50:33.233Z,11168
2017-06-21T10:51:33.265Z,11128
2017-06-21T10:52:47.919Z,10920
2017-06-21T10:53:33.028Z,10840
2017-06-21T10:54:33.062Z,10788
2017-06-21T10:55:33.395Z,10700
2017-06-21T10:56:33.125Z,10592
2017-06-21T10:57:33.513Z,10436
2017-06-21T10:58:33.493Z,10492
2017-06-21T10:59:48.148Z,10048
2017-06-21T11:00:33.254Z,10260
2017-06-21T11:01:48.214Z,10384
2017-06-21T11:02:33.621Z,10252
2017-06-21T11:03:47.968Z,10368
2017-06-21T11:04:33.381Z,10440
2017-06-21T11:05:33.716Z,10332
2017-06-21T11:06:33.446Z,10340
2017-06-21T11:07:33.779Z,10232
2017-06-21T11:08:48.433Z,10264
2017-06-21T11:09:33.850Z,10144
2017-06-21T11:10:33.879Z,10060
2017-06-21T11:12:33.939Z,10080
2017-06-21T11:13:33.671Z,9992
2017-06-21T11:14:34.002Z,9812
2017-06-21T11:15:34.037Z,9448
2017-06-21T11:16:34.066Z,9252
2017-06-21T11:17:34.106Z,9128
2017-06-21T11:18:34.133Z,8524
2017-06-21T11:21:48.853Z,7396
2017-06-21T11:22:34.256Z,7920
2017-06-21T11:23:33.988Z,8468
2017-06-21T11:24:48.938Z,8540
2017-06-21T11:25:34.357Z,8312
2017-06-21T11:26:34.392Z,8312
2017-06-21T11:28:34.446Z,8068
2017-06-21T11:29:34.480Z,7948
2017-06-21T11:30:34.212Z,7672
2017-06-21T11:31:34.548Z,6936
2017-06-21T11:32:49.496Z,6860
2017-06-21T11:33:34.603Z,6408
2017-06-21T11:34:34.654Z,7892
2017-06-21T11:35:34.364Z,7884
2017-06-21T11:37:49.347Z,7672
2017-06-21T11:38:34.458Z,7272
2017-06-21T11:39:49.413Z,7624
2017-06-21T11:40:34.826Z,7524
2017-06-21T11:41:34.859Z,6804
2017-06-21T11:42:34.636Z,8092
2017-06-21T11:43:34.917Z,7616
2017-06-21T11:44:34.946Z,7340
2017-06-21T11:45:34.980Z,7728
2017-06-21T11:46:34.717Z,7640
2017-06-21T11:47:35.042Z,8164
2017-06-21T11:48:35.074Z,8284
2017-06-21T11:50:35.135Z,8224
2017-06-21T11:51:35.167Z,8260
2017-06-21T11:52:34.892Z,8204
2017-06-21T11:53:35.224Z,8172
2017-06-21T11:54:35.256Z,8136
2017-06-21T11:55:35.299Z,8088
2017-06-21T11:56:35.323Z,8092
2017-06-21T11:57:35.356Z,8120
2017-06-21T11:58:34.777Z,7716
2017-06-21T11:59:34.553Z,7880
2017-06-21T12:00:35.141Z,7808
2017-06-21T12:01:35.472Z,7976
2017-06-21T12:02:35.200Z,7636
2017-06-21T12:03:34.933Z,7700
2017-06-21T12:04:34.959Z,7900
2017-06-21T12:06:34.715Z,8488
2017-06-21T12:07:34.748Z,8556
2017-06-21T12:08:34.779Z,8704
2017-06-21T12:09:35.426Z,8500
2017-06-21T12:11:50.399Z,8768
2017-06-21T12:12:35.510Z,8660
2017-06-21T12:13:35.245Z,8720
2017-06-21T12:14:35.276Z,8788
2017-06-21T12:15:35.607Z,8712
2017-06-21T12:16:35.636Z,8736
2017-06-21T12:17:35.667Z,8620
2017-06-21T12:18:35.398Z,8836
2017-06-21T12:19:35.123Z,8888
2017-06-21T12:20:35.456Z,9008
2017-06-21T12:21:35.797Z,8880
2017-06-21T12:22:50.747Z,8664
2017-06-21T12:23:50.473Z,8632
2017-06-21T12:24:50.502Z,8224
2017-06-21T12:25:35.920Z,8308
2017-06-21T12:26:35.640Z,8188
2017-06-21T12:27:50.947Z,8368
2017-06-21T12:28:35.722Z,8368
2017-06-21T12:29:36.339Z,8108
2017-06-21T12:30:36.370Z,8332
2017-06-21T12:31:36.410Z,8240
2017-06-21T12:32:36.125Z,8304
2017-06-21T12:33:51.084Z,8380
2017-06-21T12:34:36.491Z,8312
2017-06-21T12:35:36.549Z,8052
2017-06-21T12:36:36.247Z,8240
2017-06-21T12:37:51.203Z,8272
2017-06-21T12:38:36.612Z,8508
2017-06-21T12:39:36.701Z,8800
2017-06-21T12:40:51.350Z,8816
2017-06-21T12:41:36.708Z,8408
2017-06-21T12:42:36.737Z,8436
2017-06-21T12:43:50.779Z,7936
2017-06-21T12:44:36.800Z,8728
2017-06-21T12:45:36.528Z,8744
2017-06-21T12:47:36.889Z,8336
2017-06-21T12:48:36.919Z,8196
2017-06-21T12:49:36.953Z,8428
2017-06-21T12:50:36.983Z,8124
2017-06-21T12:51:36.708Z,8216
2017-06-21T12:52:36.738Z,8004
2017-06-21T12:53:37.075Z,7912
2017-06-21T12:54:37.104Z,7932
2017-06-21T12:55:37.137Z,8068
2017-06-21T12:57:37.199Z,8272
2017-06-21T12:58:37.226Z,8400
2017-06-21T12:59:51.876Z,8464
2017-06-21T13:01:37.321Z,8380
2017-06-21T13:02:37.099Z,8016
2017-06-21T13:03:37.377Z,8132
2017-06-21T13:04:37.425Z,8320
2017-06-21T13:05:37.136Z,8364
2017-06-21T13:06:37.215Z,8448
2017-06-21T13:07:37.508Z,8424
2017-06-21T13:08:37.530Z,8448
2017-06-21T13:09:52.182Z,8408
2017-06-21T13:10:37.593Z,8232
2017-06-21T13:11:37.324Z,8308
2017-06-21T13:12:37.655Z,8476
2017-06-21T13:15:37.743Z,8128
2017-06-21T13:16:37.776Z,8012
2017-06-21T13:17:37.507Z,8028
2017-06-21T13:18:37.837Z,8040
2017-06-21T13:19:37.881Z,8272
2017-06-21T13:20:37.903Z,8044
2017-06-21T13:21:37.933Z,7804
2017-06-21T13:22:37.963Z,7748
2017-06-21T13:23:52.659Z,7540
2017-06-21T13:24:38.025Z,7584
2017-06-21T13:25:38.051Z,7704
2017-06-21T13:26:38.084Z,7608
2017-06-21T13:27:37.808Z,7324
2017-06-21T13:29:38.172Z,7532
2017-06-21T13:30:38.208Z,7472
2017-06-21T13:31:38.231Z,7480
2017-06-21T13:32:38.263Z,7500
2017-06-21T13:33:38.342Z,7500
2017-06-21T13:34:38.324Z,7408
2017-06-21T13:35:38.051Z,7428
2017-06-21T13:36:38.385Z,7476
2017-06-21T13:37:38.414Z,7528
2017-06-21T13:38:38.451Z,7560
2017-06-21T13:39:38.528Z,7820
2017-06-21T13:40:53.128Z,7916
2017-06-21T13:41:38.237Z,7884
2017-06-21T13:42:38.265Z,7928
2017-06-21T13:43:38.646Z,7868
2017-06-21T13:44:38.628Z,8012
2017-06-21T13:45:53.275Z,8052
2017-06-21T13:46:53.306Z,8188
2017-06-21T13:47:38.717Z,8172
2017-06-21T13:48:38.746Z,7620
2017-06-21T13:49:38.779Z,7420
2017-06-21T13:51:38.735Z,7596
2017-06-21T13:52:38.875Z,6836
2017-06-21T13:53:38.901Z,7536
2017-06-21T13:54:38.929Z,7308
2017-06-21T13:55:53.579Z,7912
2017-06-21T13:56:38.987Z,8028
2017-06-21T13:57:38.716Z,7520
2017-06-21T13:58:53.061Z,8088
2017-06-21T13:59:38.779Z,8104
2017-06-21T14:00:39.163Z,8016
2017-06-21T14:02:53.485Z,8144
2017-06-21T14:03:39.202Z,8124
2017-06-21T14:04:38.932Z,8028
2017-06-21T14:05:39.260Z,7836
2017-06-21T14:06:39.289Z,7724
2017-06-21T14:07:39.018Z,7632
2017-06-21T14:08:39.376Z,7640
2017-06-21T14:09:39.084Z,7876
2017-06-21T14:10:39.413Z,7852
2017-06-21T14:11:39.138Z,7916
2017-06-21T14:12:39.519Z,7908
2017-06-21T14:13:39.196Z,7716
2017-06-21T14:14:39.535Z,7588
2017-06-21T14:15:39.559Z,7488
2017-06-21T14:16:39.593Z,7308
2017-06-21T14:17:39.927Z,7228
2017-06-21T14:18:54.272Z,6956
2017-06-21T14:19:39.680Z,6964
2017-06-21T14:21:39.742Z,6824
2017-06-21T14:22:39.820Z,6768
2017-06-21T14:23:39.498Z,6632
2017-06-21T14:24:39.830Z,6704
2017-06-21T14:25:54.484Z,6764
2017-06-21T14:26:39.939Z,6768
2017-06-21T14:27:39.925Z,6712
2017-06-21T14:28:39.948Z,6116
2017-06-21T14:29:39.979Z,5944
2017-06-21T14:30:40.060Z,6044